メインページ
METAR-TAF:

METAR-TAF

空港 :

メルボルン空港

メルボルン, オーストラリア

緯度: 37-40-24S, 経度: 144-50-36E, 海抜: 132m

現時点の気象観測

当レポートは22分前の06:30(UTC)に作成
北西の風 12kt
気温 12°C
湿度 62%
気圧 1006 hPa
視程10km以上
高度4500ftの雲は散在している

METAR: YMML 150630Z 26017KT CAVOK 12/05 Q1006 FM0800 31012KT 9999 SCT045 FM0630 MOD TURB BLW 5000FT

時間: 16:52 (06:52 UTC)

予報

当レポートは1時間47分前の05:05(UTC)に作成
予報は15日の 06時(UTC)から 16日の 12時(UTC)まで有効
西の風 20kt、最大32ktの突風を伴う
視程10km以上
高度3000ftの雲は散在している
高度4500ftの雲は散在している
弱いにわか雨
15日の 0800時(UTC)から
北西の風 12kt
視程10km以上
高度4500ftの雲は散在している
16日の 0000時(UTC)から
西/南西の風 15kt、最大25ktの突風を伴う
視程10km以上
高度4500ftの雲は散在している
16日の 08時(UTC)から 16日の 10時(UTC)まで徐々に
の風 7kt
視程10km以上
1,500メートル以下は雲なし、積乱雲なし

TAF: YMML 150505Z 1506/1612 27020G32KT 9999 -SHRA SCT030 SCT045 FM150800 31012KT 9999 SCT045 FM160000 25015G25KT 9999 SCT045 BECMG 1608/1610 36007KT CAVOK

4,000以上の空港の気象観測と天気予報(METAR報とTAF報)

利用可能な観測所は地図上に黄色い丸と赤い丸で示す。

丸の上にカーソルを重ねると観測所名を参照できる。

次にクリックすると気象観測と天気予報を参照できる。

マップの切り替え:黒色「×」印の緑ボタンをクリックして拡大、「-」印の緑ボタンをクリックして縮小、緑色の三角印をクリックして隣りの地図に切り替え


METAR-TAF: